Time;durP1;ratioP1;P1;durP2;ratioP2;P2;SDS_P1;SDS_P2;PMS_P1;PMS_P2;Temp;Humidity;BMP_temperature;BMP_pressure;BME280_temperature;BME280_humidity;BME280_pressure;Samples;Min_cycle;Max_cycle;Signal;HPM_P1;HPM_P2
2022/04/15 00:00:26;;;;;;;29.75;26.58;;;17.10;86.20;;;;;;4993900;28;20033;-64
2022/04/15 00:02:52;;;;;;;36.22;32.42;;;17.10;86.20;;;;;;4993825;28;20092;-64
2022/04/15 00:05:37;;;;;;;37.20;33.33;;;17.00;86.20;;;;;;4993455;28;20105;-65
2022/04/15 00:08:04;;;;;;;37.92;32.83;;;17.00;86.20;;;;;;4993789;28;20105;-62
2022/04/15 00:10:30;;;;;;;38.00;32.97;;;17.00;86.30;;;;;;4993725;28;20077;-66
2022/04/15 00:12:57;;;;;;;35.28;31.67;;;16.90;86.40;;;;;;4993687;28;20105;-65
2022/04/15 00:15:23;;;;;;;35.33;29.83;;;16.90;86.60;;;;;;4993572;28;20501;-65
2022/04/15 00:17:48;;;;;;;35.45;31.80;;;16.90;86.60;;;;;;4993477;28;20130;-66
2022/04/15 00:20:14;;;;;;;35.80;32.05;;;17.00;86.60;;;;;;4993224;28;20038;-66
2022/04/15 00:22:40;;;;;;;34.13;30.60;;;16.90;86.80;;;;;;4993247;28;20037;-57
2022/04/15 00:25:07;;;;;;;33.80;30.20;;;16.90;86.90;;;;;;4993680;28;20023;-66
2022/04/15 00:27:34;;;;;;;32.65;29.27;;;16.90;86.50;;;;;;4993572;28;20114;-66
2022/04/15 00:30:00;;;;;;;36.75;32.97;;;16.90;86.80;;;;;;4993493;28;20026;-67
2022/04/15 00:32:26;;;;;;;37.63;33.63;;;16.80;86.60;;;;;;4993254;28;20086;-67
2022/04/15 00:34:52;;;;;;;36.60;32.78;;;16.80;86.80;;;;;;4993287;28;20372;-67
2022/04/15 00:37:18;;;;;;;33.38;29.20;;;16.80;86.80;;;;;;4993324;28;20464;-65
2022/04/15 00:39:45;;;;;;;34.65;31.05;;;16.80;87.00;;;;;;4993635;28;20015;-60
2022/04/15 00:42:12;;;;;;;33.13;29.55;;;16.90;86.90;;;;;;4993427;28;20081;-66
2022/04/15 00:44:38;;;;;;;37.42;32.95;;;16.80;87.10;;;;;;4993372;28;20034;-66
2022/04/15 00:47:18;;;;;;;36.15;32.17;;;16.80;87.10;;;;;;4993594;28;20022;-66
2022/04/15 00:49:44;;;;;;;38.13;33.75;;;16.70;87.20;;;;;;4993181;28;20061;-65
2022/04/15 00:52:13;;;;;;;37.42;33.50;;;16.70;87.20;;;;;;4993115;28;20054;-64
2022/04/15 00:54:41;;;;;;;38.80;33.13;;;16.80;87.10;;;;;;4993443;28;20085;-66
2022/04/15 00:57:09;;;;;;;37.92;34.03;;;16.70;87.30;;;;;;4993481;28;20023;-67
2022/04/15 00:59:37;;;;;;;36.72;32.92;;;16.70;87.80;;;;;;4995749;28;20014;-67
2022/04/15 01:02:03;;;;;;;36.35;32.58;;;16.70;87.30;;;;;;4996870;28;20109;-65
2022/04/15 01:04:31;;;;;;;38.63;34.47;;;16.70;87.40;;;;;;4996658;28;20105;-61
2022/04/15 01:07:00;;;;;;;39.53;33.58;;;16.60;87.50;;;;;;4996921;28;20064;-65
2022/04/15 01:09:27;;;;;;;38.80;34.75;;;16.60;87.60;;;;;;4996876;28;20022;-66
2022/04/15 01:11:54;;;;;;;35.40;31.67;;;16.60;87.60;;;;;;4996806;28;20026;-63
2022/04/15 01:14:24;;;;;;;37.30;33.45;;;16.60;87.60;;;;;;4996759;28;20029;-66
2022/04/15 01:16:49;;;;;;;36.20;32.47;;;16.50;87.70;;;;;;4996881;28;20097;-66
2022/04/15 01:19:15;;;;;;;31.98;28.63;;;16.50;87.90;;;;;;4996071;28;20038;-67
2022/04/15 01:21:41;;;;;;;34.05;30.45;;;16.60;87.80;;;;;;4996904;28;20026;-65
2022/04/15 01:24:06;;;;;;;29.58;26.45;;;16.50;87.80;;;;;;4996491;28;20041;-67
2022/04/15 01:26:32;;;;;;;35.65;29.92;;;16.50;87.80;;;;;;4996644;28;20117;-66
2022/04/15 01:28:58;;;;;;;31.15;27.85;;;16.60;87.90;;;;;;4996454;28;20056;-66
2022/04/15 01:31:29;;;;;;;31.77;28.17;;;16.60;87.70;;;;;;4996346;28;20018;-66
2022/04/15 01:33:54;;;;;;;36.15;31.77;;;16.60;87.90;;;;;;4995975;28;20030;-63
2022/04/15 01:36:20;;;;;;;34.33;30.63;;;16.50;87.90;;;;;;4996465;28;20106;-63
2022/04/15 01:38:46;;;;;;;34.15;29.65;;;16.50;88.10;;;;;;4996652;28;20468;-67
2022/04/15 01:41:11;;;;;;;36.50;32.78;;;16.50;88.10;;;;;;4996386;28;20029;-60
2022/04/15 01:43:37;;;;;;;33.85;30.13;;;16.40;88.20;;;;;;4996104;28;20113;-65
2022/04/15 01:46:02;;;;;;;36.20;32.35;;;16.50;88.00;;;;;;4996323;28;20027;-66
2022/04/15 01:48:28;;;;;;;35.20;31.67;;;16.50;88.00;;;;;;4995978;28;20472;-64
2022/04/15 01:50:53;;;;;;;35.33;31.77;;;16.40;88.10;;;;;;4996417;28;20384;-65
2022/04/15 01:53:22;;;;;;;32.88;29.40;;;16.40;88.10;;;;;;4995955;28;20034;-66
2022/04/15 01:55:48;;;;;;;33.05;27.90;;;16.40;88.20;;;;;;4996203;28;20025;-64
2022/04/15 01:58:13;;;;;;;33.83;30.15;;;16.40;88.20;;;;;;4995786;28;20030;-56
2022/04/15 02:00:39;;;;;;;32.03;28.50;;;16.40;88.20;;;;;;4996123;28;20109;-66
2022/04/15 02:03:05;;;;;;;30.42;27.17;;;16.40;88.30;;;;;;4995431;28;20026;-55
2022/04/15 02:05:30;;;;;;;33.15;29.17;;;16.40;88.20;;;;;;4995946;28;20060;-53
2022/04/15 02:07:56;;;;;;;34.25;29.25;;;16.40;88.10;;;;;;4995952;28;20023;-66
2022/04/15 02:10:21;;;;;;;35.75;31.63;;;16.40;88.20;;;;;;4995422;28;20037;-67
2022/04/15 02:12:47;;;;;;;35.20;29.67;;;16.30;88.20;;;;;;4995851;28;20033;-67
2022/04/15 02:15:12;;;;;;;34.38;28.17;;;16.40;88.20;;;;;;4995695;28;20113;-66
2022/04/15 02:17:38;;;;;;;31.70;25.58;;;16.40;88.20;;;;;;4995641;28;20041;-66
2022/04/15 02:20:05;;;;;;;37.90;28.48;;;16.30;88.30;;;;;;4995512;28;20042;-66
2022/04/15 02:22:30;;;;;;;38.15;27.85;;;16.30;88.30;;;;;;4995509;28;20022;-66
2022/04/15 02:24:56;;;;;;;29.02;24.98;;;16.20;88.40;;;;;;4995467;28;20121;-56
2022/04/15 02:27:21;;;;;;;35.17;28.30;;;16.10;88.60;;;;;;4995523;28;20133;-67
2022/04/15 02:29:47;;;;;;;33.97;30.27;;;16.20;88.50;;;;;;4994977;28;20105;-52
2022/04/15 02:32:12;;;;;;;37.10;27.33;;;16.20;88.30;;;;;;4995482;28;20468;-66
2022/04/15 02:34:38;;;;;;;36.58;29.50;;;16.20;88.40;;;;;;4995298;28;20041;-65
2022/04/15 02:37:04;;;;;;;31.63;26.75;;;16.10;88.40;;;;;;4995577;28;20030;-66
2022/04/15 02:39:30;;;;;;;31.77;27.27;;;16.10;88.40;;;;;;4995315;28;20142;-66
2022/04/15 02:41:56;;;;;;;29.02;25.58;;;16.10;88.40;;;;;;4995070;28;20053;-66
2022/04/15 02:44:22;;;;;;;26.50;23.67;;;16.20;88.20;;;;;;4994801;28;20057;-66
2022/04/15 02:46:48;;;;;;;27.58;24.80;;;16.10;88.30;;;;;;4995139;28;20029;-65
2022/04/15 02:49:14;;;;;;;30.77;27.60;;;16.00;88.40;;;;;;4995324;28;20034;-65
2022/04/15 02:51:39;;;;;;;29.58;26.48;;;16.00;88.40;;;;;;4995038;28;20080;-66
2022/04/15 02:54:05;;;;;;;29.10;24.63;;;16.00;88.40;;;;;;4995431;28;20073;-66
2022/04/15 02:56:31;;;;;;;29.80;26.80;;;15.90;89.20;;;;;;4994862;28;20501;-66
2022/04/15 02:58:56;;;;;;;27.55;24.73;;;15.90;88.40;;;;;;4994647;28;20515;-66
2022/04/15 03:01:22;;;;;;;29.20;26.20;;;15.90;88.40;;;;;;4994896;28;20027;-66
2022/04/15 03:03:47;;;;;;;25.85;23.17;;;15.90;88.20;;;;;;4994715;28;20039;-66
2022/04/15 03:06:13;;;;;;;28.83;25.95;;;15.80;88.10;;;;;;4994851;28;20029;-66
2022/04/15 03:08:38;;;;;;;26.63;24.00;;;15.80;87.70;;;;;;4994544;28;20026;-66
2022/04/15 03:11:05;;;;;;;25.63;23.15;;;15.80;87.80;;;;;;4992582;28;20034;-56
2022/04/15 03:13:30;;;;;;;27.70;24.90;;;15.80;87.80;;;;;;4989737;28;20056;-53
2022/04/15 03:15:56;;;;;;;28.08;24.40;;;15.80;87.70;;;;;;4993781;28;20026;-66
2022/04/15 03:18:21;;;;;;;24.90;22.40;;;15.80;87.90;;;;;;4992958;28;20022;-58
2022/04/15 03:20:47;;;;;;;27.15;24.25;;;15.80;87.50;;;;;;4993937;28;20038;-66
2022/04/15 03:23:12;;;;;;;24.48;21.98;;;15.70;87.50;;;;;;4994129;28;20041;-66
2022/04/15 03:25:38;;;;;;;24.60;22.10;;;15.70;87.50;;;;;;4994346;28;20476;-66
2022/04/15 03:28:04;;;;;;;25.88;23.33;;;15.70;87.50;;;;;;4994190;28;20040;-66
2022/04/15 03:30:29;;;;;;;25.15;22.55;;;15.70;87.60;;;;;;4994372;28;20037;-66
2022/04/15 03:32:55;;;;;;;26.33;23.35;;;15.70;87.50;;;;;;4994458;28;20022;-66
2022/04/15 03:35:21;;;;;;;26.77;24.08;;;15.70;87.60;;;;;;4994097;28;20530;-67
2022/04/15 03:37:48;;;;;;;25.10;22.52;;;15.60;88.10;;;;;;4994362;28;20030;-65
2022/04/15 03:40:14;;;;;;;25.10;22.58;;;15.60;87.60;;;;;;4994014;28;20026;-53
2022/04/15 03:42:47;;;;;;;27.42;24.50;;;15.60;87.30;;;;;;4993789;28;20495;-63
2022/04/15 03:45:18;;;;;;;24.63;22.10;;;15.60;86.90;;;;;;4994257;28;20034;-66
2022/04/15 03:47:45;;;;;;;27.30;24.57;;;15.50;87.10;;;;;;4994022;28;20022;-65
2022/04/15 03:50:12;;;;;;;25.77;23.17;;;15.50;87.10;;;;;;4994009;28;20455;-58
2022/04/15 03:52:44;;;;;;;24.55;22.10;;;15.50;87.10;;;;;;4993925;28;20102;-62
2022/04/15 03:55:14;;;;;;;25.23;22.60;;;15.50;86.90;;;;;;4993876;28;20033;-66
2022/04/15 03:57:40;;;;;;;27.52;24.30;;;15.50;86.80;;;;;;4993668;28;20109;-60
2022/04/15 04:00:08;;;;;;;28.52;25.63;;;15.40;85.90;;;;;;4993887;28;20102;-65
2022/04/15 04:02:34;;;;;;;26.23;23.52;;;15.40;86.10;;;;;;4993692;28;20026;-66
2022/04/15 04:04:59;;;;;;;27.52;24.65;;;15.40;86.30;;;;;;4993632;28;20083;-65
2022/04/15 04:07:25;;;;;;;27.02;24.20;;;15.30;86.00;;;;;;4993811;28;20025;-57
2022/04/15 04:09:50;;;;;;;26.48;23.73;;;15.30;85.80;;;;;;4993800;28;20041;-54
2022/04/15 04:12:16;;;;;;;26.08;23.48;;;15.30;86.20;;;;;;4993547;28;20502;-64
2022/04/15 04:14:41;;;;;;;27.48;24.63;;;15.30;86.50;;;;;;4993733;28;20029;-66
2022/04/15 04:17:07;;;;;;;26.23;23.52;;;15.30;86.20;;;;;;4994010;28;20049;-55
2022/04/15 04:19:32;;;;;;;24.83;22.23;;;15.30;86.00;;;;;;4993625;28;20504;-58
2022/04/15 04:21:58;;;;;;;24.13;21.58;;;15.30;86.00;;;;;;4993606;28;20023;-56
2022/04/15 04:24:24;;;;;;;21.77;19.75;;;15.30;86.00;;;;;;4993660;28;20096;-55
2022/04/15 04:26:49;;;;;;;20.38;18.25;;;15.30;86.30;;;;;;4993428;28;20039;-65
2022/04/15 04:29:15;;;;;;;21.38;19.27;;;15.30;86.20;;;;;;4993618;28;20026;-65
2022/04/15 04:31:40;;;;;;;21.42;19.42;;;15.30;85.90;;;;;;4993596;28;20023;-53
2022/04/15 04:34:06;;;;;;;19.17;17.27;;;15.20;85.80;;;;;;4995265;28;20022;-66
2022/04/15 04:36:31;;;;;;;19.92;18.00;;;15.30;86.00;;;;;;4997539;28;20471;-65
2022/04/15 04:38:57;;;;;;;19.63;17.85;;;15.30;85.80;;;;;;4997630;28;20486;-63
2022/04/15 04:41:22;;;;;;;19.92;18.20;;;15.30;85.60;;;;;;4997246;28;20030;-66
2022/04/15 04:43:49;;;;;;;19.63;17.58;;;15.20;85.30;;;;;;4979922;28;20038;-66
2022/04/15 04:46:15;;;;;;;16.95;15.35;;;15.20;85.40;;;;;;4997637;28;20126;-67
2022/04/15 04:48:40;;;;;;;15.18;13.68;;;15.20;85.90;;;;;;4997051;28;20368;-66
2022/04/15 04:51:06;;;;;;;16.02;14.63;;;15.30;86.20;;;;;;4997471;28;20023;-63
2022/04/15 04:53:32;;;;;;;13.32;12.13;;;15.20;86.20;;;;;;4997090;28;20046;-66
2022/04/15 04:55:57;;;;;;;15.30;13.73;;;15.30;86.40;;;;;;4979542;28;20104;-67
2022/04/15 04:58:23;;;;;;;13.52;12.30;;;15.30;86.20;;;;;;4997018;28;20109;-66
2022/04/15 05:00:48;;;;;;;14.00;12.55;;;15.30;86.10;;;;;;4994417;28;20058;-66
2022/04/15 05:03:14;;;;;;;15.95;14.38;;;15.30;86.00;;;;;;4991404;28;20026;-66
2022/04/15 05:05:39;;;;;;;16.90;15.30;;;15.30;86.30;;;;;;4975204;28;20026;-65
2022/04/15 05:08:05;;;;;;;15.40;13.93;;;15.30;86.10;;;;;;4975872;28;20041;-61
2022/04/15 05:10:32;;;;;;;17.70;15.85;;;15.20;86.40;;;;;;4977108;28;20031;-64
2022/04/15 05:12:59;;;;;;;15.30;13.90;;;15.20;86.60;;;;;;4977024;28;20054;-67
2022/04/15 05:15:24;;;;;;;17.50;15.30;;;15.20;86.60;;;;;;4977598;28;20066;-65
2022/04/15 05:17:50;;;;;;;16.05;14.52;;;15.20;86.60;;;;;;4977135;28;20061;-66
2022/04/15 05:20:16;;;;;;;17.48;15.63;;;15.10;86.50;;;;;;4977256;28;20046;-66
2022/04/15 05:22:41;;;;;;;17.15;15.43;;;15.10;86.60;;;;;;4977029;28;20113;-66
2022/04/15 05:25:07;;;;;;;15.38;13.95;;;15.10;86.70;;;;;;4977055;28;20042;-66
2022/04/15 05:27:32;;;;;;;16.58;14.90;;;15.00;86.60;;;;;;4977166;28;20106;-66
2022/04/15 05:29:58;;;;;;;14.77;13.35;;;15.00;86.80;;;;;;4977130;28;20027;-65
2022/04/15 05:32:24;;;;;;;15.27;13.77;;;15.10;86.70;;;;;;4976801;28;20023;-66
2022/04/15 05:34:50;;;;;;;16.27;14.65;;;15.10;86.70;;;;;;4977086;28;20365;-65
2022/04/15 05:37:15;;;;;;;18.80;17.00;;;15.00;86.80;;;;;;4977062;28;20062;-66
2022/04/15 05:39:41;;;;;;;19.30;17.27;;;15.00;86.90;;;;;;4976627;28;20066;-65
2022/04/15 05:42:07;;;;;;;18.55;16.58;;;15.00;86.90;;;;;;4976803;28;20058;-62
2022/04/15 05:44:32;;;;;;;20.42;17.52;;;15.10;86.90;;;;;;4974788;28;20392;-66
2022/04/15 05:46:58;;;;;;;17.90;16.10;;;15.10;87.00;;;;;;4976991;28;20035;-66
2022/04/15 05:49:25;;;;;;;17.80;15.98;;;15.00;86.90;;;;;;4976621;28;20042;-65
2022/04/15 05:51:51;;;;;;;17.55;15.63;;;15.10;87.10;;;;;;4976524;28;20023;-62
2022/04/15 05:54:16;;;;;;;21.55;17.75;;;15.10;87.20;;;;;;4976508;28;20465;-67
2022/04/15 05:56:42;;;;;;;20.90;18.65;;;15.00;87.30;;;;;;4976649;28;20022;-66
2022/04/15 05:59:08;;;;;;;19.35;17.10;;;15.10;87.40;;;;;;4976448;28;20034;-65
2022/04/15 06:01:34;;;;;;;24.55;19.92;;;15.10;87.60;;;;;;4977107;28;20026;-67
2022/04/15 06:03:59;;;;;;;17.88;15.98;;;15.10;88.60;;;;;;4976263;28;20133;-67
2022/04/15 06:06:25;;;;;;;22.88;18.95;;;15.20;88.70;;;;;;4976520;28;20027;-67
2022/04/15 06:08:51;;;;;;;20.25;17.73;;;15.30;88.80;;;;;;4976110;28;20026;-66
2022/04/15 06:11:16;;;;;;;24.70;19.95;;;15.40;88.80;;;;;;4976567;28;20054;-67
2022/04/15 06:13:47;;;;;;;27.60;20.52;;;15.50;88.60;;;;;;4976198;28;20564;-67
2022/04/15 06:16:17;;;;;;;25.33;21.85;;;15.50;88.40;;;;;;4976178;28;20385;-64
2022/04/15 06:18:43;;;;;;;27.67;22.95;;;15.60;88.00;;;;;;4976189;28;20019;-67
2022/04/15 06:21:09;;;;;;;27.80;23.70;;;15.60;88.00;;;;;;4976693;28;20546;-67
2022/04/15 06:23:34;;;;;;;36.80;29.20;;;15.70;87.70;;;;;;4975594;28;20037;-67
2022/04/15 06:26:00;;;;;;;29.58;26.35;;;15.70;87.50;;;;;;4975973;28;20031;-66
2022/04/15 06:28:25;;;;;;;33.42;25.58;;;15.80;87.40;;;;;;4976015;28;20034;-67
2022/04/15 06:30:51;;;;;;;32.55;25.15;;;15.70;88.00;;;;;;4975625;28;20027;-65
2022/04/15 06:33:20;;;;;;;37.25;27.27;;;15.80;87.30;;;;;;4975910;28;20380;-66
2022/04/15 06:35:46;;;;;;;30.98;27.13;;;15.80;87.30;;;;;;4975896;28;20042;-55
2022/04/15 06:38:11;;;;;;;36.08;30.13;;;15.80;87.40;;;;;;4975683;28;20468;-66
2022/04/15 06:40:38;;;;;;;33.33;27.35;;;15.80;87.50;;;;;;4975621;28;20033;-63
2022/04/15 06:43:04;;;;;;;39.08;26.15;;;15.90;87.40;;;;;;4975592;28;20039;-67
2022/04/15 06:45:30;;;;;;;30.90;25.65;;;15.90;87.20;;;;;;4976045;28;20027;-67
2022/04/15 06:47:56;;;;;;;30.52;24.35;;;16.00;87.30;;;;;;4975686;28;20392;-66
2022/04/15 06:50:21;;;;;;;29.58;25.95;;;16.00;87.20;;;;;;4975503;28;20476;-67
2022/04/15 06:52:47;;;;;;;32.53;26.92;;;16.10;87.30;;;;;;4974822;28;20023;-66
2022/04/15 06:55:12;;;;;;;25.55;22.35;;;16.10;87.00;;;;;;4975412;28;20502;-66
2022/04/15 06:57:38;;;;;;;28.83;21.77;;;16.10;87.20;;;;;;4974708;28;20027;-67
2022/04/15 07:00:05;;;;;;;33.72;26.38;;;16.20;87.10;;;;;;4975301;28;20126;-63
2022/04/15 07:02:33;;;;;;;25.55;22.17;;;16.30;86.80;;;;;;4975165;28;20030;-67
2022/04/15 07:04:59;;;;;;;28.33;23.42;;;16.30;87.00;;;;;;4974966;28;20484;-67
2022/04/15 07:07:24;;;;;;;33.80;26.10;;;16.30;86.50;;;;;;4974942;28;20054;-64
2022/04/15 07:09:50;;;;;;;29.77;26.42;;;16.40;86.90;;;;;;4975076;28;20046;-62
2022/04/15 07:12:17;;;;;;;31.40;24.90;;;16.40;86.90;;;;;;4975086;28;20422;-66
2022/04/15 07:14:43;;;;;;;28.13;25.05;;;16.40;86.50;;;;;;4975029;28;20402;-66
2022/04/15 07:17:08;;;;;;;27.73;21.90;;;16.50;86.30;;;;;;4975223;28;20487;-64
2022/04/15 07:19:34;;;;;;;23.88;21.25;;;16.50;86.10;;;;;;4975014;28;20512;-64
2022/04/15 07:21:59;;;;;;;25.85;21.85;;;16.60;85.90;;;;;;4974619;28;20476;-63
2022/04/15 07:24:27;;;;;;;23.25;20.52;;;16.70;85.80;;;;;;4975031;28;20041;-64
2022/04/15 07:26:52;;;;;;;24.67;20.70;;;16.70;85.70;;;;;;4974847;28;20476;-65
2022/04/15 07:29:20;;;;;;;30.05;23.90;;;16.70;85.60;;;;;;4974722;28;20033;-67
2022/04/15 07:31:46;;;;;;;30.35;24.77;;;16.80;85.60;;;;;;4974612;28;20372;-64
2022/04/15 07:34:11;;;;;;;26.05;22.60;;;16.80;85.70;;;;;;4974906;28;20484;-66
2022/04/15 07:39:02;;;;;;;27.92;21.55;;;16.90;85.70;;;;;;4974894;28;20035;-67
2022/04/15 07:41:28;;;;;;;29.73;23.20;;;17.00;85.60;;;;;;4974642;28;20078;-67
2022/04/15 07:43:54;;;;;;;29.35;23.15;;;17.00;85.30;;;;;;4974436;28;20500;-61
2022/04/15 07:46:19;;;;;;;26.25;21.58;;;17.10;85.40;;;;;;4974472;28;20018;-66
2022/04/15 07:48:45;;;;;;;30.00;23.50;;;17.10;85.00;;;;;;4974500;28;20030;-62
2022/04/15 07:51:10;;;;;;;33.67;24.10;;;17.20;84.70;;;;;;4974552;28;20031;-67
2022/04/15 07:53:36;;;;;;;22.20;19.85;;;17.20;84.40;;;;;;4974547;28;20425;-67
2022/04/15 07:56:02;;;;;;;27.92;20.67;;;17.30;84.50;;;;;;4974328;28;20106;-66
2022/04/15 07:58:28;;;;;;;23.42;19.95;;;17.30;84.60;;;;;;4974571;28;20041;-66
2022/04/15 08:00:54;;;;;;;26.90;20.00;;;17.40;84.10;;;;;;4974356;28;20062;-66
2022/04/15 08:03:20;;;;;;;28.40;22.10;;;17.40;83.90;;;;;;4956944;28;20495;-66
2022/04/15 08:05:49;;;;;;;26.65;21.35;;;17.40;83.70;;;;;;4974146;28;20031;-63
2022/04/15 08:08:14;;;;;;;23.95;18.65;;;17.50;83.80;;;;;;4974329;28;20019;-67
2022/04/15 08:10:40;;;;;;;25.95;20.73;;;17.50;83.60;;;;;;4974539;28;20042;-66
2022/04/15 08:13:06;;;;;;;26.25;20.13;;;17.50;83.40;;;;;;4973967;28;20038;-67
2022/04/15 08:15:31;;;;;;;24.67;20.33;;;17.50;80.40;;;;;;4974343;28;20030;-65
2022/04/15 08:17:57;;;;;;;25.38;20.58;;;17.60;80.30;;;;;;4974134;28;20495;-67
2022/04/15 08:20:23;;;;;;;26.65;21.52;;;17.70;81.80;;;;;;4976528;28;20042;-66
2022/04/15 08:22:48;;;;;;;26.05;20.70;;;17.60;81.60;;;;;;4985639;28;20455;-65
2022/04/15 08:25:14;;;;;;;22.65;18.77;;;17.70;82.40;;;;;;4988232;28;20046;-64
2022/04/15 08:27:39;;;;;;;19.60;17.35;;;17.70;81.90;;;;;;4978625;28;20023;-66
2022/04/15 08:30:06;;;;;;;20.73;16.05;;;17.80;81.10;;;;;;4981983;28;20428;-67
2022/04/15 08:32:34;;;;;;;28.05;24.80;;;17.80;80.40;;;;;;4984854;28;20545;-64
2022/04/15 08:35:04;;;;;;;24.92;19.35;;;17.90;80.70;;;;;;4977248;28;20384;-66
2022/04/15 08:37:30;;;;;;;21.38;15.32;;;17.90;80.10;;;;;;4977123;28;20031;-66
2022/04/15 08:39:56;;;;;;;19.98;14.57;;;17.90;79.70;;;;;;4983107;28;20034;-66
2022/04/15 08:42:22;;;;;;;17.50;12.60;;;18.00;79.40;;;;;;4983942;28;20071;-64
2022/04/15 08:44:51;;;;;;;17.63;13.43;;;18.00;80.70;;;;;;4976017;28;20392;-63
2022/04/15 08:47:16;;;;;;;20.50;15.50;;;18.00;79.70;;;;;;4987303;28;20449;-67
2022/04/15 08:49:42;;;;;;;16.65;13.90;;;18.10;80.80;;;;;;4979017;28;20061;-65
2022/04/15 08:52:09;;;;;;;21.38;13.93;;;18.10;80.60;;;;;;4981160;28;20027;-66
2022/04/15 08:54:35;;;;;;;15.88;12.80;;;18.10;80.50;;;;;;4985835;28;20440;-67
2022/04/15 08:57:01;;;;;;;17.17;13.57;;;18.10;80.40;;;;;;4974260;28;20142;-67
2022/04/15 08:59:27;;;;;;;17.45;12.50;;;18.20;79.90;;;;;;4986853;28;20035;-67
2022/04/15 09:01:52;;;;;;;16.88;11.93;;;18.20;79.90;;;;;;4974183;28;20022;-61
2022/04/15 09:04:18;;;;;;;22.02;17.00;;;18.20;80.10;;;;;;4987063;28;20026;-67
2022/04/15 09:06:44;;;;;;;21.98;17.75;;;18.20;79.40;;;;;;4974993;28;20026;-62
2022/04/15 09:09:14;;;;;;;28.27;20.92;;;18.30;80.10;;;;;;4985055;28;20042;-64
2022/04/15 09:11:42;;;;;;;33.50;29.33;;;18.30;80.20;;;;;;4982341;28;20747;-65
2022/04/15 09:14:13;;;;;;;35.47;28.20;;;18.00;81.80;;;;;;4991251;28;20093;-66
2022/04/15 09:16:49;;;;;;;35.85;30.00;;;17.50;84.10;;;;;;4985460;28;20472;-57
2022/04/15 09:19:16;;;;;;;35.95;30.92;;;17.30;85.00;;;;;;4980802;28;20038;-58
2022/04/15 09:21:59;;;;;;;33.22;29.67;;;17.10;86.50;;;;;;4989627;28;20504;-66
2022/04/15 09:24:36;;;;;;;36.38;32.47;;;17.10;86.80;;;;;;4994738;28;20499;-56
2022/04/15 09:27:06;;;;;;;35.58;31.85;;;17.00;86.50;;;;;;4995140;28;20022;-66
2022/04/15 09:29:35;;;;;;;37.35;33.40;;;16.80;87.70;;;;;;4994968;28;20030;-66
2022/04/15 09:32:09;;;;;;;39.60;34.53;;;16.70;88.70;;;;;;4994743;28;20045;-64
2022/04/15 09:34:55;;;;;;;38.80;34.67;;;16.60;88.10;;;;;;4994407;28;20034;-65
2022/04/15 09:37:23;;;;;;;41.42;36.47;;;16.50;88.80;;;;;;4993946;28;20562;-63
2022/04/15 09:40:05;;;;;;;39.65;35.03;;;16.20;89.40;;;;;;4994448;28;20026;-63
2022/04/15 09:42:31;;;;;;;39.42;34.95;;;16.20;89.40;;;;;;4993839;28;20022;-57
2022/04/15 09:45:00;;;;;;;39.05;35.00;;;16.20;89.50;;;;;;4994349;28;20046;-66
2022/04/15 09:47:27;;;;;;;38.80;34.45;;;16.30;89.80;;;;;;4994311;28;20399;-52
2022/04/15 09:49:52;;;;;;;38.97;34.97;;;16.40;89.30;;;;;;4994294;28;20027;-66
2022/04/15 09:52:25;;;;;;;35.65;32.05;;;15.90;90.50;;;;;;4994178;28;20130;-66
2022/04/15 09:54:53;;;;;;;36.63;32.92;;;16.10;90.10;;;;;;4994140;28;20490;-62
2022/04/15 09:57:19;;;;;;;36.47;32.88;;;15.90;90.20;;;;;;4994200;28;20025;-63
2022/04/15 09:59:49;;;;;;;34.65;30.95;;;16.00;90.30;;;;;;4994234;28;20031;-65
2022/04/15 10:02:14;;;;;;;31.52;28.42;;;16.10;89.70;;;;;;4993743;28;20480;-65
2022/04/15 10:04:42;;;;;;;34.47;30.95;;;16.00;89.60;;;;;;4994213;28;20074;-66
2022/04/15 10:07:08;;;;;;;35.33;31.63;;;16.10;90.10;;;;;;4993917;28;20014;-65
2022/04/15 10:09:40;;;;;;;28.33;25.42;;;16.20;89.90;;;;;;4994075;28;20023;-66
2022/04/15 10:12:07;;;;;;;32.90;29.35;;;15.80;89.70;;;;;;4993958;28;20106;-63
2022/04/15 10:14:33;;;;;;;28.48;25.38;;;15.80;90.70;;;;;;4993904;28;20057;-61
2022/04/15 10:17:00;;;;;;;27.38;24.55;;;16.00;90.00;;;;;;4993763;28;20040;-63
2022/04/15 10:19:26;;;;;;;27.92;24.92;;;16.10;89.90;;;;;;4992982;28;20377;-63
2022/04/15 10:21:52;;;;;;;27.77;25.05;;;16.10;89.00;;;;;;4993100;28;20040;-61
2022/04/15 10:24:18;;;;;;;26.15;23.55;;;16.20;88.90;;;;;;4993504;28;20125;-66
2022/04/15 10:26:52;;;;;;;29.63;26.63;;;16.10;89.20;;;;;;4993558;28;20049;-66
2022/04/15 10:29:18;;;;;;;18.77;16.77;;;16.20;89.30;;;;;;4993517;28;20443;-65
2022/04/15 10:31:54;;;;;;;29.17;26.10;;;16.20;90.10;;;;;;4992725;28;20026;-66
2022/04/15 10:34:21;;;;;;;27.45;24.67;;;16.20;90.00;;;;;;4976696;28;20026;-66
2022/04/15 10:36:49;;;;;;;28.08;25.23;;;16.20;89.60;;;;;;4976164;28;20440;-65
2022/04/15 10:39:19;;;;;;;29.88;26.80;;;16.20;89.60;;;;;;4993777;28;20033;-62
2022/04/15 10:41:53;;;;;;;27.17;24.30;;;16.20;90.00;;;;;;4993895;28;20054;-66
2022/04/15 10:44:44;;;;;;;24.50;21.88;;;16.20;89.30;;;;;;4992682;28;20065;-65
2022/04/15 10:47:16;;;;;;;27.08;24.33;;;16.00;89.30;;;;;;4993271;28;20121;-66
2022/04/15 10:49:59;;;;;;;26.48;23.80;;;15.90;90.30;;;;;;4993423;28;20034;-63
2022/04/15 10:52:26;;;;;;;26.35;23.73;;;16.00;90.50;;;;;;4992978;28;20077;-64
2022/04/15 10:54:54;;;;;;;25.33;22.88;;;16.10;89.70;;;;;;4992448;28;20025;-64
2022/04/15 10:57:21;;;;;;;26.30;20.50;;;15.90;89.90;;;;;;4988570;28;20030;-66
2022/04/15 11:02:50;;;;;;;22.58;20.48;;;15.60;89.80;;;;;;4992366;28;20041;-67
2022/04/15 11:05:32;;;;;;;20.45;17.35;;;15.60;90.10;;;;;;4992498;28;20033;-66
2022/04/15 11:08:03;;;;;;;20.15;17.63;;;15.70;90.20;;;;;;4992089;28;20026;-64
2022/04/15 11:10:44;;;;;;;20.67;18.57;;;15.70;89.70;;;;;;4987191;28;20037;-67
2022/04/15 11:13:28;;;;;;;20.33;18.38;;;15.50;90.40;;;;;;4990420;28;20451;-65
2022/04/15 11:16:03;;;;;;;19.05;16.67;;;15.70;89.90;;;;;;4991673;28;20043;-59
2022/04/15 11:18:50;;;;;;;20.75;18.83;;;16.00;88.60;;;;;;4991319;28;20057;-66
2022/04/15 11:21:24;;;;;;;21.98;19.85;;;15.90;89.20;;;;;;4992124;28;20423;-61
2022/04/15 11:23:57;;;;;;;18.83;15.45;;;15.90;90.10;;;;;;4991874;28;20084;-64
2022/04/15 11:26:25;;;;;;;19.30;15.82;;;15.90;87.90;;;;;;4990870;28;20527;-64
2022/04/15 11:28:52;;;;;;;18.55;15.82;;;16.00;89.10;;;;;;4992596;28;20022;-64
2022/04/15 11:31:29;;;;;;;17.23;15.52;;;16.00;89.20;;;;;;4992662;28;20023;-65
2022/04/15 11:33:56;;;;;;;17.55;15.85;;;16.00;88.30;;;;;;4992258;28;20038;-66
2022/04/15 11:36:24;;;;;;;17.45;15.85;;;15.90;89.20;;;;;;4992421;28;20110;-66
2022/04/15 11:38:50;;;;;;;17.15;14.90;;;16.10;88.30;;;;;;4992630;28;20081;-64
2022/04/15 11:41:24;;;;;;;16.05;14.30;;;16.30;88.50;;;;;;4992131;28;20014;-66
2022/04/15 11:43:59;;;;;;;15.82;14.23;;;16.40;85.20;;;;;;4991575;28;20026;-64
2022/04/15 11:46:45;;;;;;;20.40;16.80;;;16.30;85.10;;;;;;4992394;28;20439;-66
2022/04/15 11:49:22;;;;;;;15.15;13.55;;;16.20;86.50;;;;;;4992567;28;20026;-62
2022/04/15 11:51:57;;;;;;;17.35;13.60;;;16.20;84.50;;;;;;4992341;28;20033;-61
2022/04/15 11:54:36;;;;;;;14.85;13.32;;;16.20;85.40;;;;;;4991938;28;20488;-58
2022/04/15 11:57:04;;;;;;;11.07;10.07;;;16.30;85.70;;;;;;4990443;28;20057;-56
2022/04/15 11:59:38;;;;;;;13.88;12.45;;;16.30;83.50;;;;;;4991279;28;20467;-57
2022/04/15 12:02:04;;;;;;;11.63;10.50;;;16.30;84.30;;;;;;4992065;28;20030;-55
2022/04/15 12:04:30;;;;;;;14.57;12.68;;;16.40;83.30;;;;;;4991791;28;20434;-66
2022/04/15 12:06:55;;;;;;;13.82;12.52;;;16.40;84.30;;;;;;4991418;28;20338;-66
2022/04/15 12:09:24;;;;;;;12.80;11.60;;;16.40;85.20;;;;;;4992226;28;20030;-66
2022/04/15 12:11:51;;;;;;;14.23;12.68;;;16.30;84.00;;;;;;4991827;28;20058;-61
2022/04/15 12:14:18;;;;;;;13.85;12.43;;;16.40;84.60;;;;;;4991793;28;20026;-55
2022/04/15 12:16:45;;;;;;;13.13;11.85;;;16.20;85.20;;;;;;4991350;28;20030;-66
2022/04/15 12:19:12;;;;;;;14.77;13.23;;;16.20;85.30;;;;;;4974070;28;20384;-61
2022/04/15 12:21:38;;;;;;;14.65;13.25;;;16.20;86.20;;;;;;4991662;28;20019;-66
2022/04/15 12:24:11;;;;;;;15.18;13.45;;;16.30;85.20;;;;;;4991419;28;20535;-65
2022/04/15 12:26:44;;;;;;;15.30;13.80;;;16.40;85.50;;;;;;4990998;28;20192;-64
2022/04/15 12:32:22;;;;;;;13.90;12.50;;;16.40;83.90;;;;;;4990977;28;20580;-65
2022/04/15 12:35:09;;;;;;;14.43;13.02;;;16.50;83.40;;;;;;4991762;28;20472;-66
2022/04/15 12:37:56;;;;;;;20.58;14.65;;;16.40;85.40;;;;;;4991016;28;20019;-60